sensor_id;sensor_type;location;lat;lon;timestamp;P1;durP1;ratioP1;P2;durP2;ratioP2
18883;SDS011;9574;47.282;9.640;2023-05-17T11:36:13;2.40;;;1.97;;
18883;SDS011;9574;47.282;9.640;2023-05-17T11:38:43;2.03;;;1.80;;
18883;SDS011;9574;47.282;9.640;2023-05-17T11:41:16;3.40;;;1.77;;
18883;SDS011;9574;47.282;9.640;2023-05-17T11:43:46;2.77;;;1.70;;
18883;SDS011;9574;47.282;9.640;2023-05-17T11:46:20;2.87;;;1.83;;
18883;SDS011;9574;47.282;9.640;2023-05-17T11:48:49;2.50;;;2.10;;
18883;SDS011;9574;47.282;9.640;2023-05-17T11:51:18;7.17;;;2.00;;
18883;SDS011;9574;47.282;9.640;2023-05-17T11:53:45;2.13;;;1.70;;
18883;SDS011;9574;47.282;9.640;2023-05-17T11:56:13;4.33;;;2.33;;
18883;SDS011;9574;47.282;9.640;2023-05-17T11:58:41;1.53;;;1.43;;
18883;SDS011;9574;47.282;9.640;2023-05-17T12:01:09;2.50;;;1.80;;
18883;SDS011;9574;47.282;9.640;2023-05-17T12:03:36;2.47;;;1.50;;
18883;SDS011;9574;47.282;9.640;2023-05-17T12:06:04;2.23;;;2.03;;
18883;SDS011;9574;47.282;9.640;2023-05-17T12:08:35;3.93;;;1.80;;
18883;SDS011;9574;47.282;9.640;2023-05-17T12:11:03;4.37;;;1.87;;
18883;SDS011;9574;47.282;9.640;2023-05-17T12:13:32;2.37;;;1.70;;
18883;SDS011;9574;47.282;9.640;2023-05-17T12:16:00;2.57;;;1.70;;
18883;SDS011;9574;47.282;9.640;2023-05-17T12:18:35;5.73;;;2.13;;
18883;SDS011;9574;47.282;9.640;2023-05-17T12:21:03;5.10;;;1.53;;
18883;SDS011;9574;47.282;9.640;2023-05-17T12:23:31;2.13;;;1.87;;
18883;SDS011;9574;47.282;9.640;2023-05-17T12:26:04;5.27;;;1.90;;
18883;SDS011;9574;47.282;9.640;2023-05-17T12:28:33;6.07;;;1.63;;
18883;SDS011;9574;47.282;9.640;2023-05-17T12:31:00;2.07;;;1.60;;
18883;SDS011;9574;47.282;9.640;2023-05-17T12:33:29;1.70;;;1.60;;
18883;SDS011;9574;47.282;9.640;2023-05-17T12:35:57;2.33;;;1.83;;
18883;SDS011;9574;47.282;9.640;2023-05-17T12:38:29;3.33;;;1.70;;
18883;SDS011;9574;47.282;9.640;2023-05-17T12:40:58;3.53;;;2.10;;
18883;SDS011;9574;47.282;9.640;2023-05-17T12:43:28;1.93;;;1.67;;
18883;SDS011;9574;47.282;9.640;2023-05-17T12:46:01;2.70;;;1.63;;
18883;SDS011;9574;47.282;9.640;2023-05-17T12:48:28;3.80;;;2.00;;
18883;SDS011;9574;47.282;9.640;2023-05-17T12:50:56;4.37;;;1.83;;
18883;SDS011;9574;47.282;9.640;2023-05-17T12:53:23;2.23;;;1.70;;
18883;SDS011;9574;47.282;9.640;2023-05-17T12:55:59;3.03;;;1.70;;
18883;SDS011;9574;47.282;9.640;2023-05-17T12:58:27;3.40;;;1.90;;
18883;SDS011;9574;47.282;9.640;2023-05-17T13:00:55;1.60;;;1.50;;
18883;SDS011;9574;47.282;9.640;2023-05-17T13:03:23;4.37;;;1.80;;
18883;SDS011;9574;47.282;9.640;2023-05-17T13:05:58;2.17;;;1.40;;
18883;SDS011;9574;47.282;9.640;2023-05-17T13:08:29;3.73;;;2.00;;
18883;SDS011;9574;47.282;9.640;2023-05-17T13:11:05;4.73;;;2.07;;
18883;SDS011;9574;47.282;9.640;2023-05-17T13:13:38;3.70;;;1.80;;
18883;SDS011;9574;47.282;9.640;2023-05-17T13:16:06;2.27;;;1.70;;
18883;SDS011;9574;47.282;9.640;2023-05-17T13:18:45;2.77;;;1.73;;
18883;SDS011;9574;47.282;9.640;2023-05-17T13:21:16;2.63;;;1.53;;
18883;SDS011;9574;47.282;9.640;2023-05-17T13:23:45;2.60;;;1.50;;
18883;SDS011;9574;47.282;9.640;2023-05-17T13:26:13;6.67;;;2.00;;
18883;SDS011;9574;47.282;9.640;2023-05-17T13:28:42;1.80;;;1.70;;
18883;SDS011;9574;47.282;9.640;2023-05-17T13:31:10;2.03;;;1.47;;
18883;SDS011;9574;47.282;9.640;2023-05-17T13:33:37;3.00;;;1.70;;
18883;SDS011;9574;47.282;9.640;2023-05-17T13:36:04;1.57;;;1.43;;
18883;SDS011;9574;47.282;9.640;2023-05-17T13:38:32;2.50;;;1.90;;
18883;SDS011;9574;47.282;9.640;2023-05-17T13:40:59;3.80;;;1.53;;
18883;SDS011;9574;47.282;9.640;2023-05-17T13:43:26;3.77;;;1.43;;
18883;SDS011;9574;47.282;9.640;2023-05-17T13:45:54;2.80;;;1.60;;
18883;SDS011;9574;47.282;9.640;2023-05-17T13:48:23;3.70;;;2.10;;
18883;SDS011;9574;47.282;9.640;2023-05-17T13:50:50;2.30;;;1.70;;
18883;SDS011;9574;47.282;9.640;2023-05-17T13:53:17;3.80;;;2.33;;
18883;SDS011;9574;47.282;9.640;2023-05-17T13:55:44;3.17;;;1.53;;
18883;SDS011;9574;47.282;9.640;2023-05-17T13:58:11;5.83;;;1.93;;
18883;SDS011;9574;47.282;9.640;2023-05-17T14:00:40;9.47;;;1.93;;
18883;SDS011;9574;47.282;9.640;2023-05-17T14:03:10;2.03;;;1.40;;
18883;SDS011;9574;47.282;9.640;2023-05-17T14:05:39;8.43;;;2.17;;
18883;SDS011;9574;47.282;9.640;2023-05-17T14:08:06;1.63;;;1.40;;
18883;SDS011;9574;47.282;9.640;2023-05-17T14:10:33;4.43;;;1.53;;
18883;SDS011;9574;47.282;9.640;2023-05-17T14:13:00;3.60;;;1.70;;
18883;SDS011;9574;47.282;9.640;2023-05-17T14:15:27;6.27;;;1.90;;
18883;SDS011;9574;47.282;9.640;2023-05-17T14:17:54;3.43;;;1.80;;
18883;SDS011;9574;47.282;9.640;2023-05-17T14:20:22;1.70;;;1.60;;
18883;SDS011;9574;47.282;9.640;2023-05-17T14:22:49;2.47;;;1.60;;
18883;SDS011;9574;47.282;9.640;2023-05-17T14:25:16;1.90;;;1.80;;
18883;SDS011;9574;47.282;9.640;2023-05-17T14:27:43;4.63;;;2.27;;
18883;SDS011;9574;47.282;9.640;2023-05-17T14:30:11;2.30;;;1.70;;
18883;SDS011;9574;47.282;9.640;2023-05-17T14:32:39;2.47;;;1.70;;
18883;SDS011;9574;47.282;9.640;2023-05-17T14:35:07;5.20;;;1.77;;
18883;SDS011;9574;47.282;9.640;2023-05-17T14:37:36;7.70;;;2.13;;
18883;SDS011;9574;47.282;9.640;2023-05-17T14:40:03;5.73;;;2.00;;
18883;SDS011;9574;47.282;9.640;2023-05-17T14:42:31;4.50;;;1.73;;
18883;SDS011;9574;47.282;9.640;2023-05-17T14:44:58;3.90;;;1.60;;
18883;SDS011;9574;47.282;9.640;2023-05-17T14:47:25;3.30;;;1.60;;
18883;SDS011;9574;47.282;9.640;2023-05-17T14:49:52;1.97;;;1.60;;
18883;SDS011;9574;47.282;9.640;2023-05-17T14:52:19;1.80;;;1.63;;
18883;SDS011;9574;47.282;9.640;2023-05-17T14:54:47;4.17;;;1.60;;
18883;SDS011;9574;47.282;9.640;2023-05-17T14:57:14;3.73;;;1.70;;
18883;SDS011;9574;47.282;9.640;2023-05-17T14:59:41;3.93;;;1.90;;
18883;SDS011;9574;47.282;9.640;2023-05-17T15:02:09;4.17;;;1.77;;
18883;SDS011;9574;47.282;9.640;2023-05-17T15:04:36;3.03;;;1.90;;
18883;SDS011;9574;47.282;9.640;2023-05-17T15:07:03;2.90;;;1.70;;
18883;SDS011;9574;47.282;9.640;2023-05-17T15:09:31;2.10;;;1.37;;
18883;SDS011;9574;47.282;9.640;2023-05-17T15:12:05;2.13;;;1.50;;
18883;SDS011;9574;47.282;9.640;2023-05-17T15:14:32;1.50;;;1.40;;
18883;SDS011;9574;47.282;9.640;2023-05-17T15:16:59;3.17;;;1.87;;
18883;SDS011;9574;47.282;9.640;2023-05-17T15:19:28;2.80;;;1.87;;
18883;SDS011;9574;47.282;9.640;2023-05-17T15:21:55;4.97;;;1.80;;
18883;SDS011;9574;47.282;9.640;2023-05-17T15:24:22;3.03;;;1.63;;
18883;SDS011;9574;47.282;9.640;2023-05-17T15:26:50;3.43;;;1.80;;
18883;SDS011;9574;47.282;9.640;2023-05-17T15:29:18;2.50;;;1.80;;
18883;SDS011;9574;47.282;9.640;2023-05-17T15:31:45;2.87;;;2.03;;
18883;SDS011;9574;47.282;9.640;2023-05-17T15:34:12;3.53;;;1.97;;
18883;SDS011;9574;47.282;9.640;2023-05-17T15:36:39;3.43;;;1.67;;
18883;SDS011;9574;47.282;9.640;2023-05-17T15:39:06;8.73;;;2.10;;
18883;SDS011;9574;47.282;9.640;2023-05-17T15:41:34;5.23;;;2.00;;
18883;SDS011;9574;47.282;9.640;2023-05-17T15:44:02;3.57;;;1.80;;
18883;SDS011;9574;47.282;9.640;2023-05-17T15:46:30;1.60;;;1.50;;
18883;SDS011;9574;47.282;9.640;2023-05-17T15:48:57;2.10;;;1.60;;
18883;SDS011;9574;47.282;9.640;2023-05-17T15:51:24;1.83;;;1.63;;
18883;SDS011;9574;47.282;9.640;2023-05-17T15:53:51;1.77;;;1.67;;
18883;SDS011;9574;47.282;9.640;2023-05-17T15:56:18;4.97;;;1.87;;
18883;SDS011;9574;47.282;9.640;2023-05-17T15:58:47;5.60;;;2.03;;
18883;SDS011;9574;47.282;9.640;2023-05-17T16:01:14;1.77;;;1.67;;
18883;SDS011;9574;47.282;9.640;2023-05-17T16:03:43;2.80;;;1.70;;
18883;SDS011;9574;47.282;9.640;2023-05-17T16:06:10;1.77;;;1.67;;
18883;SDS011;9574;47.282;9.640;2023-05-17T16:08:38;4.97;;;2.20;;
18883;SDS011;9574;47.282;9.640;2023-05-17T16:11:05;4.33;;;3.03;;
18883;SDS011;9574;47.282;9.640;2023-05-17T16:13:33;2.40;;;1.60;;
18883;SDS011;9574;47.282;9.640;2023-05-17T16:16:00;3.20;;;2.00;;
18883;SDS011;9574;47.282;9.640;2023-05-17T16:18:28;2.40;;;2.13;;
18883;SDS011;9574;47.282;9.640;2023-05-17T16:20:58;4.17;;;2.07;;
18883;SDS011;9574;47.282;9.640;2023-05-17T16:23:27;3.07;;;2.00;;
18883;SDS011;9574;47.282;9.640;2023-05-17T16:25:55;5.40;;;1.60;;
18883;SDS011;9574;47.282;9.640;2023-05-17T16:28:22;4.73;;;1.83;;
18883;SDS011;9574;47.282;9.640;2023-05-17T16:30:49;2.93;;;1.67;;
18883;SDS011;9574;47.282;9.640;2023-05-17T16:33:16;2.03;;;1.67;;
18883;SDS011;9574;47.282;9.640;2023-05-17T16:35:45;2.00;;;1.70;;
18883;SDS011;9574;47.282;9.640;2023-05-17T16:38:14;2.03;;;1.50;;
18883;SDS011;9574;47.282;9.640;2023-05-17T16:40:50;2.27;;;1.60;;
18883;SDS011;9574;47.282;9.640;2023-05-17T16:43:17;5.50;;;2.17;;
18883;SDS011;9574;47.282;9.640;2023-05-17T16:45:44;3.53;;;2.13;;
18883;SDS011;9574;47.282;9.640;2023-05-17T16:48:12;2.73;;;1.90;;
18883;SDS011;9574;47.282;9.640;2023-05-17T16:50:39;2.17;;;1.53;;
18883;SDS011;9574;47.282;9.640;2023-05-17T16:53:06;2.93;;;1.70;;
18883;SDS011;9574;47.282;9.640;2023-05-17T16:55:35;5.77;;;1.97;;
18883;SDS011;9574;47.282;9.640;2023-05-17T16:58:02;2.57;;;1.80;;
18883;SDS011;9574;47.282;9.640;2023-05-17T17:00:30;1.83;;;1.70;;
18883;SDS011;9574;47.282;9.640;2023-05-17T17:02:57;2.23;;;1.57;;
18883;SDS011;9574;47.282;9.640;2023-05-17T17:05:24;4.43;;;1.47;;
18883;SDS011;9574;47.282;9.640;2023-05-17T17:07:51;5.13;;;1.80;;
18883;SDS011;9574;47.282;9.640;2023-05-17T17:10:18;2.70;;;1.73;;
18883;SDS011;9574;47.282;9.640;2023-05-17T17:12:47;2.80;;;1.67;;
18883;SDS011;9574;47.282;9.640;2023-05-17T17:15:14;2.97;;;1.80;;
18883;SDS011;9574;47.282;9.640;2023-05-17T17:17:42;2.80;;;2.00;;
18883;SDS011;9574;47.282;9.640;2023-05-17T17:20:10;3.93;;;2.00;;
18883;SDS011;9574;47.282;9.640;2023-05-17T17:22:37;5.03;;;2.30;;
18883;SDS011;9574;47.282;9.640;2023-05-17T17:25:05;6.93;;;2.27;;
18883;SDS011;9574;47.282;9.640;2023-05-17T17:27:33;2.80;;;2.20;;
18883;SDS011;9574;47.282;9.640;2023-05-17T17:30:02;4.43;;;2.00;;
18883;SDS011;9574;47.282;9.640;2023-05-17T17:32:29;2.93;;;1.93;;
18883;SDS011;9574;47.282;9.640;2023-05-17T17:34:57;6.67;;;1.80;;
18883;SDS011;9574;47.282;9.640;2023-05-17T17:37:24;2.43;;;2.00;;
18883;SDS011;9574;47.282;9.640;2023-05-17T17:39:51;4.30;;;2.00;;
18883;SDS011;9574;47.282;9.640;2023-05-17T17:42:18;3.37;;;1.90;;
18883;SDS011;9574;47.282;9.640;2023-05-17T17:44:45;1.53;;;1.43;;
18883;SDS011;9574;47.282;9.640;2023-05-17T17:47:13;3.10;;;1.50;;
18883;SDS011;9574;47.282;9.640;2023-05-17T17:49:40;2.00;;;1.53;;
18883;SDS011;9574;47.282;9.640;2023-05-17T17:52:07;4.87;;;1.80;;
18883;SDS011;9574;47.282;9.640;2023-05-17T17:54:34;5.27;;;1.70;;
18883;SDS011;9574;47.282;9.640;2023-05-17T17:57:01;2.23;;;1.40;;
18883;SDS011;9574;47.282;9.640;2023-05-17T17:59:28;2.23;;;1.93;;
18883;SDS011;9574;47.282;9.640;2023-05-17T18:01:55;3.60;;;2.07;;
18883;SDS011;9574;47.282;9.640;2023-05-17T18:04:25;2.37;;;1.70;;
18883;SDS011;9574;47.282;9.640;2023-05-17T18:06:52;3.17;;;1.73;;
18883;SDS011;9574;47.282;9.640;2023-05-17T18:09:19;2.70;;;1.90;;
18883;SDS011;9574;47.282;9.640;2023-05-17T18:11:52;5.23;;;1.70;;
18883;SDS011;9574;47.282;9.640;2023-05-17T18:14:21;4.50;;;1.83;;
18883;SDS011;9574;47.282;9.640;2023-05-17T18:16:48;3.70;;;1.83;;
18883;SDS011;9574;47.282;9.640;2023-05-17T18:19:14;3.20;;;1.80;;
18883;SDS011;9574;47.282;9.640;2023-05-17T18:21:43;3.73;;;1.97;;
18883;SDS011;9574;47.282;9.640;2023-05-17T18:24:10;2.10;;;1.70;;
18883;SDS011;9574;47.282;9.640;2023-05-17T18:26:37;3.23;;;1.93;;
18883;SDS011;9574;47.282;9.640;2023-05-17T18:29:05;2.90;;;1.90;;
18883;SDS011;9574;47.282;9.640;2023-05-17T18:31:40;2.30;;;1.93;;
18883;SDS011;9574;47.282;9.640;2023-05-17T18:34:16;3.60;;;2.00;;
18883;SDS011;9574;47.282;9.640;2023-05-17T18:36:45;5.80;;;2.47;;
18883;SDS011;9574;47.282;9.640;2023-05-17T18:39:12;4.07;;;1.93;;
18883;SDS011;9574;47.282;9.640;2023-05-17T18:41:38;3.47;;;1.90;;
18883;SDS011;9574;47.282;9.640;2023-05-17T18:44:05;3.47;;;2.50;;
18883;SDS011;9574;47.282;9.640;2023-05-17T18:46:33;2.40;;;2.20;;
18883;SDS011;9574;47.282;9.640;2023-05-17T18:49:00;3.00;;;2.70;;
18883;SDS011;9574;47.282;9.640;2023-05-17T18:51:28;3.40;;;2.10;;
18883;SDS011;9574;47.282;9.640;2023-05-17T18:53:57;2.80;;;2.10;;
18883;SDS011;9574;47.282;9.640;2023-05-17T18:56:24;3.60;;;1.90;;
18883;SDS011;9574;47.282;9.640;2023-05-17T18:58:52;4.77;;;1.90;;
18883;SDS011;9574;47.282;9.640;2023-05-17T19:01:20;4.37;;;2.00;;
18883;SDS011;9574;47.282;9.640;2023-05-17T19:03:47;5.13;;;2.57;;
18883;SDS011;9574;47.282;9.640;2023-05-17T19:06:15;4.17;;;2.13;;
18883;SDS011;9574;47.282;9.640;2023-05-17T19:08:43;2.77;;;2.27;;
18883;SDS011;9574;47.282;9.640;2023-05-17T19:11:11;4.77;;;2.60;;
18883;SDS011;9574;47.282;9.640;2023-05-17T19:13:38;4.97;;;2.13;;
18883;SDS011;9574;47.282;9.640;2023-05-17T19:16:06;3.90;;;2.70;;
18883;SDS011;9574;47.282;9.640;2023-05-17T19:18:33;2.50;;;2.27;;
18883;SDS011;9574;47.282;9.640;2023-05-17T19:21:00;6.70;;;1.90;;
18883;SDS011;9574;47.282;9.640;2023-05-17T19:23:27;2.97;;;2.30;;
18883;SDS011;9574;47.282;9.640;2023-05-17T19:25:56;6.67;;;2.43;;
18883;SDS011;9574;47.282;9.640;2023-05-17T19:28:25;3.20;;;2.23;;
18883;SDS011;9574;47.282;9.640;2023-05-17T19:30:52;4.37;;;2.90;;
18883;SDS011;9574;47.282;9.640;2023-05-17T19:33:19;4.30;;;2.20;;
18883;SDS011;9574;47.282;9.640;2023-05-17T19:35:47;5.33;;;2.43;;
18883;SDS011;9574;47.282;9.640;2023-05-17T19:38:16;3.73;;;2.60;;
18883;SDS011;9574;47.282;9.640;2023-05-17T19:40:43;2.63;;;2.30;;
18883;SDS011;9574;47.282;9.640;2023-05-17T19:43:10;3.63;;;2.40;;
18883;SDS011;9574;47.282;9.640;2023-05-17T19:45:38;3.50;;;2.20;;
18883;SDS011;9574;47.282;9.640;2023-05-17T19:48:05;7.13;;;2.97;;
18883;SDS011;9574;47.282;9.640;2023-05-17T19:50:32;3.90;;;2.60;;
18883;SDS011;9574;47.282;9.640;2023-05-17T19:52:59;6.73;;;2.70;;
18883;SDS011;9574;47.282;9.640;2023-05-17T19:55:26;4.83;;;2.60;;
18883;SDS011;9574;47.282;9.640;2023-05-17T19:57:56;4.90;;;2.70;;
18883;SDS011;9574;47.282;9.640;2023-05-17T20:00:24;4.03;;;2.30;;
18883;SDS011;9574;47.282;9.640;2023-05-17T20:02:53;5.73;;;2.97;;
18883;SDS011;9574;47.282;9.640;2023-05-17T20:05:21;6.57;;;2.80;;
18883;SDS011;9574;47.282;9.640;2023-05-17T20:07:49;5.97;;;3.10;;
18883;SDS011;9574;47.282;9.640;2023-05-17T20:10:16;5.30;;;2.80;;
18883;SDS011;9574;47.282;9.640;2023-05-17T20:12:43;4.47;;;2.57;;
18883;SDS011;9574;47.282;9.640;2023-05-17T20:15:10;2.40;;;2.20;;
18883;SDS011;9574;47.282;9.640;2023-05-17T20:17:37;3.17;;;2.57;;
18883;SDS011;9574;47.282;9.640;2023-05-17T20:20:07;5.37;;;2.60;;
18883;SDS011;9574;47.282;9.640;2023-05-17T20:22:34;3.50;;;2.70;;
18883;SDS011;9574;47.282;9.640;2023-05-17T20:25:01;5.60;;;2.47;;
18883;SDS011;9574;47.282;9.640;2023-05-17T20:27:29;4.37;;;2.40;;
18883;SDS011;9574;47.282;9.640;2023-05-17T20:29:56;3.80;;;2.30;;
18883;SDS011;9574;47.282;9.640;2023-05-17T20:32:23;2.73;;;2.50;;
18883;SDS011;9574;47.282;9.640;2023-05-17T20:34:50;7.90;;;3.27;;
18883;SDS011;9574;47.282;9.640;2023-05-17T20:37:18;6.17;;;3.17;;
18883;SDS011;9574;47.282;9.640;2023-05-17T20:39:45;3.17;;;2.60;;
18883;SDS011;9574;47.282;9.640;2023-05-17T20:42:12;3.20;;;2.40;;
18883;SDS011;9574;47.282;9.640;2023-05-17T20:44:49;7.07;;;2.60;;
18883;SDS011;9574;47.282;9.640;2023-05-17T20:47:17;3.37;;;2.30;;
18883;SDS011;9574;47.282;9.640;2023-05-17T20:49:45;4.27;;;2.73;;
18883;SDS011;9574;47.282;9.640;2023-05-17T20:52:14;3.07;;;2.63;;
18883;SDS011;9574;47.282;9.640;2023-05-17T20:54:43;7.90;;;2.87;;
18883;SDS011;9574;47.282;9.640;2023-05-17T20:57:10;6.03;;;2.43;;
18883;SDS011;9574;47.282;9.640;2023-05-17T20:59:37;3.70;;;2.37;;
18883;SDS011;9574;47.282;9.640;2023-05-17T21:02:04;7.17;;;3.00;;
18883;SDS011;9574;47.282;9.640;2023-05-17T21:04:31;6.00;;;2.90;;
18883;SDS011;9574;47.282;9.640;2023-05-17T21:06:58;3.03;;;2.73;;
18883;SDS011;9574;47.282;9.640;2023-05-17T21:09:25;5.17;;;2.50;;
18883;SDS011;9574;47.282;9.640;2023-05-17T21:11:54;5.93;;;2.50;;
18883;SDS011;9574;47.282;9.640;2023-05-17T21:14:21;3.63;;;2.67;;
18883;SDS011;9574;47.282;9.640;2023-05-17T21:16:48;4.17;;;2.43;;
18883;SDS011;9574;47.282;9.640;2023-05-17T21:19:15;4.57;;;2.37;;
18883;SDS011;9574;47.282;9.640;2023-05-17T21:21:42;6.03;;;2.73;;
18883;SDS011;9574;47.282;9.640;2023-05-17T21:24:09;4.60;;;2.80;;
18883;SDS011;9574;47.282;9.640;2023-05-17T21:26:36;6.23;;;2.50;;
18883;SDS011;9574;47.282;9.640;2023-05-17T21:29:04;3.97;;;2.87;;
18883;SDS011;9574;47.282;9.640;2023-05-17T21:31:31;5.80;;;2.90;;
18883;SDS011;9574;47.282;9.640;2023-05-17T21:33:58;4.37;;;2.87;;
18883;SDS011;9574;47.282;9.640;2023-05-17T21:36:25;6.17;;;2.83;;
18883;SDS011;9574;47.282;9.640;2023-05-17T21:38:52;6.80;;;2.87;;
18883;SDS011;9574;47.282;9.640;2023-05-17T21:41:19;4.67;;;2.57;;
18883;SDS011;9574;47.282;9.640;2023-05-17T21:43:46;5.10;;;2.67;;
18883;SDS011;9574;47.282;9.640;2023-05-17T21:46:16;4.60;;;2.60;;
18883;SDS011;9574;47.282;9.640;2023-05-17T21:48:43;3.07;;;2.60;;
18883;SDS011;9574;47.282;9.640;2023-05-17T21:51:10;3.33;;;2.50;;
18883;SDS011;9574;47.282;9.640;2023-05-17T21:53:38;2.73;;;2.50;;
18883;SDS011;9574;47.282;9.640;2023-05-17T21:56:05;3.80;;;2.53;;
18883;SDS011;9574;47.282;9.640;2023-05-17T21:58:32;3.50;;;2.33;;
18883;SDS011;9574;47.282;9.640;2023-05-17T22:00:59;5.43;;;2.30;;
18883;SDS011;9574;47.282;9.640;2023-05-17T22:03:28;3.23;;;2.77;;
18883;SDS011;9574;47.282;9.640;2023-05-17T22:05:55;7.47;;;2.67;;
18883;SDS011;9574;47.282;9.640;2023-05-17T22:08:22;5.77;;;2.50;;
18883;SDS011;9574;47.282;9.640;2023-05-17T22:10:49;5.30;;;2.80;;
18883;SDS011;9574;47.282;9.640;2023-05-17T22:13:18;5.13;;;2.63;;
18883;SDS011;9574;47.282;9.640;2023-05-17T22:15:50;3.17;;;2.37;;
18883;SDS011;9574;47.282;9.640;2023-05-17T22:18:21;4.53;;;2.10;;
18883;SDS011;9574;47.282;9.640;2023-05-17T22:20:49;6.30;;;2.37;;
18883;SDS011;9574;47.282;9.640;2023-05-17T22:23:17;2.57;;;2.37;;
18883;SDS011;9574;47.282;9.640;2023-05-17T22:25:44;3.73;;;2.40;;
18883;SDS011;9574;47.282;9.640;2023-05-17T22:28:11;5.60;;;2.50;;
18883;SDS011;9574;47.282;9.640;2023-05-17T22:30:38;3.33;;;3.00;;
18883;SDS011;9574;47.282;9.640;2023-05-17T22:33:05;3.53;;;2.63;;
18883;SDS011;9574;47.282;9.640;2023-05-17T22:35:32;4.00;;;2.57;;
18883;SDS011;9574;47.282;9.640;2023-05-17T22:38:01;7.17;;;2.53;;
18883;SDS011;9574;47.282;9.640;2023-05-17T22:40:28;4.40;;;2.60;;
18883;SDS011;9574;47.282;9.640;2023-05-17T22:42:56;4.27;;;2.60;;
18883;SDS011;9574;47.282;9.640;2023-05-17T22:45:23;2.60;;;2.40;;
18883;SDS011;9574;47.282;9.640;2023-05-17T22:47:56;3.70;;;2.90;;
18883;SDS011;9574;47.282;9.640;2023-05-17T22:50:26;3.53;;;2.80;;
18883;SDS011;9574;47.282;9.640;2023-05-17T22:52:58;3.63;;;2.80;;
18883;SDS011;9574;47.282;9.640;2023-05-17T22:55:27;4.33;;;3.00;;
18883;SDS011;9574;47.282;9.640;2023-05-17T22:57:54;3.73;;;3.00;;
18883;SDS011;9574;47.282;9.640;2023-05-17T23:00:22;4.17;;;2.90;;
18883;SDS011;9574;47.282;9.640;2023-05-17T23:02:49;5.67;;;3.03;;
18883;SDS011;9574;47.282;9.640;2023-05-17T23:05:16;7.10;;;3.43;;
18883;SDS011;9574;47.282;9.640;2023-05-17T23:07:43;6.57;;;2.87;;
18883;SDS011;9574;47.282;9.640;2023-05-17T23:10:11;4.07;;;2.97;;
18883;SDS011;9574;47.282;9.640;2023-05-17T23:12:40;3.67;;;2.87;;
18883;SDS011;9574;47.282;9.640;2023-05-17T23:15:08;4.23;;;2.40;;
18883;SDS011;9574;47.282;9.640;2023-05-17T23:17:35;2.53;;;2.33;;
18883;SDS011;9574;47.282;9.640;2023-05-17T23:20:03;3.20;;;2.90;;
18883;SDS011;9574;47.282;9.640;2023-05-17T23:22:34;3.80;;;2.43;;
18883;SDS011;9574;47.282;9.640;2023-05-17T23:25:01;4.03;;;2.73;;
18883;SDS011;9574;47.282;9.640;2023-05-17T23:27:28;4.40;;;2.40;;
18883;SDS011;9574;47.282;9.640;2023-05-17T23:29:57;3.20;;;2.77;;
18883;SDS011;9574;47.282;9.640;2023-05-17T23:32:25;3.33;;;2.67;;
18883;SDS011;9574;47.282;9.640;2023-05-17T23:34:52;4.10;;;2.07;;
18883;SDS011;9574;47.282;9.640;2023-05-17T23:37:22;3.63;;;2.37;;
18883;SDS011;9574;47.282;9.640;2023-05-17T23:39:49;3.23;;;2.50;;
18883;SDS011;9574;47.282;9.640;2023-05-17T23:42:16;2.60;;;2.33;;
18883;SDS011;9574;47.282;9.640;2023-05-17T23:44:44;5.70;;;2.67;;
18883;SDS011;9574;47.282;9.640;2023-05-17T23:47:14;5.53;;;2.60;;
18883;SDS011;9574;47.282;9.640;2023-05-17T23:49:41;4.93;;;2.30;;
18883;SDS011;9574;47.282;9.640;2023-05-17T23:52:08;2.67;;;2.37;;
18883;SDS011;9574;47.282;9.640;2023-05-17T23:54:36;4.33;;;3.17;;
18883;SDS011;9574;47.282;9.640;2023-05-17T23:57:03;5.37;;;2.80;;
18883;SDS011;9574;47.282;9.640;2023-05-17T23:59:31;5.53;;;3.50;;
